createdAt,value
2022-11-14T00:01:12.864Z,100394.34
2022-11-14T00:03:40.337Z,100383.03
2022-11-14T00:06:08.288Z,100396.91
2022-11-14T00:08:36.085Z,100385.00
2022-11-14T00:11:03.525Z,100371.19
2022-11-14T00:13:30.502Z,100372.72
2022-11-14T00:15:57.472Z,100374.22
2022-11-14T00:18:24.562Z,100367.78
2022-11-14T00:20:53.365Z,100366.44
2022-11-14T00:23:21.461Z,100361.56
2022-11-14T00:25:49.113Z,100365.91
2022-11-14T00:28:15.994Z,100362.22
2022-11-14T00:30:49.960Z,100369.28
2022-11-14T00:33:20.673Z,100354.56
2022-11-14T00:35:55.842Z,100356.00
2022-11-14T00:38:23.555Z,100350.06
2022-11-14T00:40:51.611Z,100345.44
2022-11-14T00:43:18.616Z,100345.03
2022-11-14T00:45:46.511Z,100338.81
2022-11-14T00:48:14.776Z,100344.09
2022-11-14T00:50:42.098Z,100340.16
2022-11-14T00:53:09.004Z,100346.19
2022-11-14T00:55:35.918Z,100351.69
2022-11-14T00:58:02.996Z,100348.03
2022-11-14T01:00:30.050Z,100347.00
2022-11-14T01:02:58.227Z,100356.75
2022-11-14T01:05:25.812Z,100347.66
2022-11-14T01:07:52.993Z,100348.34
2022-11-14T01:10:20.947Z,100346.53
2022-11-14T01:12:47.947Z,100350.84
2022-11-14T01:15:14.920Z,100357.50
2022-11-14T01:17:41.806Z,100357.88
2022-11-14T01:20:09.123Z,100352.50
2022-11-14T01:22:36.034Z,100351.69
2022-11-14T01:25:02.984Z,100346.03
2022-11-14T01:27:33.306Z,100333.69
2022-11-14T01:30:00.206Z,100332.94
2022-11-14T01:32:27.589Z,100329.81
2022-11-14T01:34:54.568Z,100321.56
2022-11-14T01:37:21.587Z,100312.78
2022-11-14T01:39:48.579Z,100316.38
2022-11-14T01:42:17.456Z,100306.69
2022-11-14T01:44:52.570Z,100305.31
2022-11-14T01:47:28.827Z,100291.88
2022-11-14T01:50:00.559Z,100292.69
2022-11-14T01:52:27.392Z,100283.81
2022-11-14T01:54:58.632Z,100280.50
2022-11-14T01:57:31.264Z,100266.09
2022-11-14T02:00:05.533Z,100259.78
2022-11-14T02:02:32.709Z,100256.50
2022-11-14T02:05:09.581Z,100255.31
2022-11-14T02:07:41.107Z,100257.00
2022-11-14T02:10:19.048Z,100251.91
2022-11-14T02:12:47.027Z,100244.69
2022-11-14T02:15:14.887Z,100252.56
2022-11-14T02:17:44.093Z,100243.22
2022-11-14T02:20:32.553Z,100239.47
2022-11-14T02:22:59.527Z,100250.38
2022-11-14T02:25:26.653Z,100247.66
2022-11-14T02:27:53.544Z,100244.00
2022-11-14T02:30:23.261Z,100248.66
2022-11-14T02:33:10.553Z,100243.69
2022-11-14T02:35:38.481Z,100238.72
2022-11-14T02:38:05.362Z,100244.09
2022-11-14T02:40:32.524Z,100235.94
2022-11-14T02:42:59.751Z,100238.84
2022-11-14T02:45:27.295Z,100231.44
2022-11-14T02:47:54.194Z,100227.19
2022-11-14T02:50:21.185Z,100225.91
2022-11-14T02:52:49.294Z,100225.50
2022-11-14T02:55:16.321Z,100222.97
2022-11-14T02:57:43.213Z,100224.03
2022-11-14T03:00:14.861Z,100230.06
2022-11-14T03:02:42.380Z,100225.88
2022-11-14T03:05:09.358Z,100229.50
2022-11-14T03:07:36.504Z,100216.91
2022-11-14T03:10:03.923Z,100214.19
2022-11-14T03:12:33.761Z,100221.72
2022-11-14T03:15:00.636Z,100222.66
2022-11-14T03:17:32.392Z,100227.41
2022-11-14T03:19:59.556Z,100231.28
2022-11-14T03:22:27.122Z,100231.88
2022-11-14T03:24:54.050Z,100226.03
2022-11-14T03:27:21.568Z,100220.06
2022-11-14T03:29:49.066Z,100220.84
2022-11-14T03:32:16.617Z,100223.84
2022-11-14T03:34:43.770Z,100213.56
2022-11-14T03:37:10.746Z,100217.47
2022-11-14T03:39:37.858Z,100215.47
2022-11-14T03:42:04.859Z,100217.78
2022-11-14T03:44:31.860Z,100206.97
2022-11-14T03:46:58.926Z,100203.41
2022-11-14T03:49:28.785Z,100212.16
2022-11-14T03:51:55.692Z,100211.69
2022-11-14T03:54:22.615Z,100222.09
2022-11-14T03:56:49.528Z,100223.28
2022-11-14T03:59:16.526Z,100225.06
2022-11-14T04:01:43.471Z,100223.47
2022-11-14T04:04:12.959Z,100224.97
2022-11-14T04:06:39.934Z,100222.19
2022-11-14T04:09:07.350Z,100211.47
2022-11-14T04:11:34.237Z,100209.38
2022-11-14T04:14:01.167Z,100205.72
2022-11-14T04:16:28.040Z,100203.38
2022-11-14T04:18:54.955Z,100200.19
2022-11-14T04:21:21.850Z,100194.25
2022-11-14T04:23:48.791Z,100191.34
2022-11-14T04:26:15.805Z,100186.41
2022-11-14T04:28:42.681Z,100181.81
2022-11-14T04:31:09.538Z,100176.91
2022-11-14T04:33:36.497Z,100178.47
2022-11-14T04:36:03.699Z,100176.53
2022-11-14T04:38:30.985Z,100176.03
2022-11-14T04:40:58.080Z,100173.47
2022-11-14T04:43:24.983Z,100176.09
2022-11-14T04:45:51.987Z,100175.72
2022-11-14T04:48:18.900Z,100180.38
2022-11-14T04:50:46.603Z,100188.66
2022-11-14T04:53:13.641Z,100182.75
2022-11-14T04:55:40.720Z,100176.59
2022-11-14T04:58:07.687Z,100184.97
2022-11-14T05:00:34.622Z,100177.66
2022-11-14T05:03:01.640Z,100179.66
2022-11-14T05:05:29.082Z,100183.06
2022-11-14T05:07:55.991Z,100174.00
2022-11-14T05:10:23.118Z,100169.50
2022-11-14T05:12:54.493Z,100171.44
2022-11-14T05:15:21.841Z,100172.16
2022-11-14T05:17:48.798Z,100172.88
2022-11-14T05:20:15.951Z,100175.59
2022-11-14T05:22:42.849Z,100174.63
2022-11-14T05:25:10.708Z,100180.78
2022-11-14T05:27:37.601Z,100183.00
2022-11-14T05:30:05.277Z,100178.56
2022-11-14T05:32:32.144Z,100178.28
2022-11-14T05:34:59.148Z,100186.41
2022-11-14T05:37:26.031Z,100175.09
2022-11-14T05:39:53.039Z,100167.28
2022-11-14T05:42:19.931Z,100165.22
2022-11-14T05:44:46.809Z,100162.28
2022-11-14T05:47:13.708Z,100161.69
2022-11-14T05:49:40.707Z,100155.13
2022-11-14T05:52:07.773Z,100147.50
2022-11-14T05:54:34.657Z,100136.19
2022-11-14T05:57:01.606Z,100139.16
2022-11-14T05:59:28.595Z,100137.53
2022-11-14T06:01:55.631Z,100132.22
2022-11-14T06:04:22.928Z,100124.66
2022-11-14T06:06:49.902Z,100130.06
2022-11-14T06:09:17.303Z,100131.78
2022-11-14T06:11:44.202Z,100126.31
2022-11-14T06:14:11.396Z,100126.16
2022-11-14T06:16:38.393Z,100143.09
2022-11-14T06:19:05.407Z,100137.03
2022-11-14T06:21:32.408Z,100146.53
2022-11-14T06:23:59.314Z,100147.72
2022-11-14T06:26:31.764Z,100142.22
2022-11-14T06:29:00.638Z,100132.03
2022-11-14T06:31:28.210Z,100136.09
2022-11-14T06:33:55.165Z,100126.94
2022-11-14T06:36:22.195Z,100121.81
2022-11-14T06:38:49.141Z,100123.16
2022-11-14T06:41:21.983Z,100129.81
2022-11-14T06:43:54.193Z,100119.31
2022-11-14T06:46:23.124Z,100124.94
2022-11-14T06:48:52.425Z,100118.38
2022-11-14T06:51:19.473Z,100121.91
2022-11-14T06:53:46.621Z,100128.72
2022-11-14T06:56:16.868Z,100143.63
2022-11-14T06:58:49.479Z,100153.38
2022-11-14T07:01:20.389Z,100143.75
2022-11-14T07:03:48.073Z,100160.53
2022-11-14T07:06:21.220Z,100150.63
2022-11-14T07:08:48.145Z,100146.13
2022-11-14T07:11:25.243Z,100161.69
2022-11-14T07:14:00.391Z,100169.13
2022-11-14T07:16:36.799Z,100168.75
2022-11-14T07:19:09.809Z,100166.50
2022-11-14T07:21:37.015Z,100155.13
2022-11-14T07:24:04.768Z,100158.25
2022-11-14T07:26:34.785Z,100179.28
2022-11-14T07:29:02.720Z,100181.38
2022-11-14T07:31:30.051Z,100173.69
2022-11-14T07:33:56.990Z,100175.34
2022-11-14T07:36:24.202Z,100184.06
2022-11-14T07:38:51.244Z,100183.22
2022-11-14T07:41:19.518Z,100181.94
2022-11-14T07:43:47.096Z,100181.72
2022-11-14T07:46:16.833Z,100192.63
2022-11-14T07:48:44.752Z,100187.50
2022-11-14T07:51:18.748Z,100179.41
2022-11-14T07:53:45.921Z,100179.72
2022-11-14T07:56:13.976Z,100184.28
2022-11-14T07:58:41.749Z,100182.81
2022-11-14T08:01:12.633Z,100182.00
2022-11-14T08:03:45.329Z,100186.13
2022-11-14T08:06:16.211Z,100181.28
2022-11-14T08:08:43.233Z,100181.91
2022-11-14T08:11:10.612Z,100177.25
2022-11-14T08:13:37.873Z,100165.78
2022-11-14T08:16:13.845Z,100159.56
2022-11-14T08:18:41.505Z,100158.28
2022-11-14T08:21:08.560Z,100163.53
2022-11-14T08:23:35.628Z,100164.25
2022-11-14T08:26:03.637Z,100166.78
2022-11-14T08:28:31.000Z,100166.78
2022-11-14T08:31:03.830Z,100159.69
2022-11-14T08:33:31.875Z,100165.59
2022-11-14T08:36:04.062Z,100174.03
2022-11-14T08:38:33.502Z,100163.47
2022-11-14T08:41:02.040Z,100174.63
2022-11-14T08:43:29.764Z,100176.13
2022-11-14T08:46:02.339Z,100176.72
2022-11-14T08:48:31.595Z,100185.19
2022-11-14T08:51:04.192Z,100178.97
2022-11-14T08:53:31.511Z,100188.22
2022-11-14T08:55:58.503Z,100192.56
2022-11-14T08:58:30.560Z,100184.13
2022-11-14T09:01:05.565Z,100180.59
2022-11-14T09:03:33.592Z,100179.78
2022-11-14T09:06:02.171Z,100171.22
2022-11-14T09:08:30.740Z,100175.94
2022-11-14T09:11:05.085Z,100178.38
2022-11-14T09:13:34.732Z,100173.44
2022-11-14T09:16:02.163Z,100169.66
2022-11-14T09:18:31.223Z,100162.03
2022-11-14T09:21:04.622Z,100161.34
2022-11-14T09:23:32.686Z,100156.38
2022-11-14T09:26:07.584Z,100158.50
2022-11-14T09:28:35.195Z,100152.38
2022-11-14T09:31:11.634Z,100148.94
2022-11-14T09:33:39.646Z,100144.94
2022-11-14T09:36:10.962Z,100141.84
2022-11-14T09:38:38.846Z,100150.34
2022-11-14T09:41:21.708Z,100141.16
2022-11-14T09:44:26.847Z,100142.50
2022-11-14T09:47:09.092Z,100144.84
2022-11-14T09:49:45.971Z,100148.47
2022-11-14T09:52:36.586Z,100155.59
2022-11-14T09:55:21.999Z,100149.69
2022-11-14T09:57:50.145Z,100160.66
2022-11-14T10:00:21.973Z,100158.84
2022-11-14T10:03:14.808Z,100154.50
2022-11-14T10:06:03.589Z,100152.09
2022-11-14T10:09:02.650Z,100144.22
2022-11-14T10:11:34.980Z,100154.00
2022-11-14T10:14:48.062Z,100147.84
2022-11-14T10:18:13.184Z,100155.31
2022-11-14T10:20:53.450Z,100146.41
2022-11-14T10:23:52.729Z,100144.00
2022-11-14T10:26:31.129Z,100143.09
2022-11-14T10:29:47.995Z,100133.19
2022-11-14T10:32:45.062Z,100129.44
2022-11-14T10:35:19.934Z,100130.38
2022-11-14T10:38:11.952Z,100132.16
2022-11-14T10:40:50.695Z,100128.31
2022-11-14T10:43:48.306Z,100129.38
2022-11-14T10:46:27.173Z,100119.66
2022-11-14T10:48:59.881Z,100127.63
2022-11-14T10:51:44.479Z,100120.28
2022-11-14T10:54:17.401Z,100122.06
2022-11-14T10:56:49.323Z,100116.63
2022-11-14T10:59:16.455Z,100112.53
2022-11-14T11:01:58.158Z,100108.03
2022-11-14T11:04:30.999Z,100102.03
2022-11-14T11:07:44.734Z,100097.31
2022-11-14T11:10:42.210Z,100101.06
2022-11-14T11:13:15.701Z,100103.66
2022-11-14T11:15:43.188Z,100101.53
2022-11-14T11:18:29.106Z,100097.75
2022-11-14T11:21:13.408Z,100090.81
2022-11-14T11:23:57.682Z,100081.94
2022-11-14T11:26:30.780Z,100078.94
2022-11-14T11:29:09.615Z,100080.94
2022-11-14T11:32:08.102Z,100072.91
2022-11-14T11:34:35.138Z,100073.81
2022-11-14T11:37:21.609Z,100075.34
2022-11-14T11:39:56.557Z,100068.84
2022-11-14T11:43:16.799Z,100066.28
2022-11-14T11:45:20.001Z,100064.00
2022-11-14T11:48:19.770Z,100064.25
2022-11-14T11:50:48.228Z,100062.63
2022-11-14T11:53:28.481Z,100056.88
2022-11-14T11:56:04.919Z,100057.56
2022-11-14T11:58:48.498Z,100062.22
2022-11-14T12:01:16.111Z,100063.56
2022-11-14T12:03:51.659Z,100058.28
2022-11-14T12:06:25.316Z,100063.28
2022-11-14T12:09:48.673Z,100057.69
2022-11-14T12:12:40.934Z,100055.63
2022-11-14T12:16:13.162Z,100039.63
2022-11-14T12:18:46.446Z,100056.34
2022-11-14T12:21:45.170Z,100049.91
2022-11-14T12:24:45.975Z,100053.47
2022-11-14T12:27:29.947Z,100046.34
2022-11-14T12:30:16.352Z,100053.41
2022-11-14T12:33:12.219Z,100063.31
2022-11-14T12:35:56.748Z,100059.84
2022-11-14T12:38:24.631Z,100049.56
2022-11-14T12:40:58.366Z,100049.63
2022-11-14T12:43:37.946Z,100048.25
2022-11-14T12:46:09.241Z,100043.06
2022-11-14T12:48:38.174Z,100038.63
2022-11-14T12:51:29.676Z,100038.06
2022-11-14T12:53:58.209Z,100042.72
2022-11-14T12:56:32.225Z,100034.63
2022-11-14T12:59:24.870Z,100044.09
2022-11-14T13:02:16.815Z,100038.38
2022-11-14T13:04:56.409Z,100023.75
2022-11-14T13:08:35.393Z,100026.56
2022-11-14T13:11:51.263Z,100040.13
2022-11-14T13:14:38.189Z,100024.75
2022-11-14T13:17:35.791Z,100032.59
2022-11-14T13:20:48.150Z,100019.91
2022-11-14T13:23:30.283Z,100026.63
2022-11-14T13:26:13.658Z,100031.28
2022-11-14T13:28:52.541Z,100025.56
2022-11-14T13:31:26.636Z,100017.78
2022-11-14T13:34:00.735Z,100019.06
2022-11-14T13:37:02.795Z,100014.59
2022-11-14T13:39:57.539Z,100014.59
2022-11-14T13:43:02.875Z,100004.69
2022-11-14T13:45:58.021Z,100008.34
2022-11-14T13:48:47.740Z,100006.84
2022-11-14T13:54:18.628Z,100006.31
2022-11-14T13:57:21.152Z,100004.03
2022-11-14T13:59:53.482Z,100005.28
2022-11-14T14:02:53.974Z,100004.16
2022-11-14T14:05:39.885Z,100006.50
2022-11-14T14:08:23.690Z,100000.66
2022-11-14T14:11:03.309Z,99997.31
2022-11-14T14:13:55.420Z,99990.47
2022-11-14T14:17:01.637Z,99996.44
2022-11-14T14:19:58.811Z,100007.22
2022-11-14T14:23:04.742Z,100006.94
2022-11-14T14:25:44.937Z,100007.47
2022-11-14T14:28:56.213Z,100010.88
2022-11-14T14:31:23.902Z,100015.38
2022-11-14T14:33:52.548Z,100007.53
2022-11-14T14:36:28.752Z,100004.38
2022-11-14T14:39:25.284Z,100001.84
2022-11-14T14:41:56.751Z,100005.34
2022-11-14T14:44:38.545Z,100002.59
2022-11-14T14:47:39.588Z,100005.78
2022-11-14T14:50:27.408Z,100002.91
2022-11-14T14:53:00.790Z,100005.50
2022-11-14T14:55:35.786Z,100013.63
2022-11-14T14:58:27.379Z,100011.19
2022-11-14T15:01:27.103Z,100022.03
2022-11-14T15:04:04.084Z,100010.53
2022-11-14T15:06:37.920Z,100003.78
2022-11-14T15:09:14.671Z,100010.66
2022-11-14T15:11:44.570Z,100008.06
2022-11-14T15:14:16.569Z,100015.94
2022-11-14T15:16:46.929Z,100013.00
2022-11-14T15:19:18.373Z,100021.94
2022-11-14T15:21:45.861Z,100022.00
2022-11-14T15:24:20.026Z,100024.81
2022-11-14T15:26:49.843Z,100016.56
2022-11-14T15:29:21.472Z,100024.63
2022-11-14T15:32:02.134Z,100005.09
2022-11-14T15:34:35.421Z,100012.50
2022-11-14T15:37:10.286Z,99997.47
2022-11-14T15:39:38.145Z,100009.78
2022-11-14T15:42:26.905Z,100003.78
2022-11-14T15:44:59.561Z,100005.84
2022-11-14T15:50:33.529Z,100008.19
2022-11-14T15:53:28.414Z,100008.78
2022-11-14T15:56:08.403Z,100018.34
2022-11-14T15:58:44.107Z,100020.94
2022-11-14T16:01:27.139Z,100019.31
2022-11-14T16:04:02.905Z,100015.88
2022-11-14T16:06:36.798Z,100019.31
2022-11-14T16:09:07.880Z,100017.81
2022-11-14T16:11:36.871Z,100014.16
2022-11-14T16:14:08.563Z,100019.47
2022-11-14T16:16:37.073Z,100018.13
2022-11-14T16:19:14.907Z,100024.41
2022-11-14T16:21:46.663Z,100032.59
2022-11-14T16:24:20.714Z,100029.75
2022-11-14T16:26:54.622Z,100030.72
2022-11-14T16:29:26.855Z,100032.59
2022-11-14T16:32:03.596Z,100032.06
2022-11-14T16:34:33.941Z,100035.19
2022-11-14T16:37:04.163Z,100041.59
2022-11-14T16:39:32.358Z,100045.13
2022-11-14T16:42:04.149Z,100034.50
2022-11-14T16:44:40.236Z,100042.97
2022-11-14T16:47:15.135Z,100048.38
2022-11-14T16:49:44.812Z,100062.84
2022-11-14T16:52:15.932Z,100062.53
2022-11-14T16:54:44.232Z,100076.66
2022-11-14T16:57:12.136Z,100076.88
2022-11-14T16:59:48.362Z,100077.97
2022-11-14T17:02:17.910Z,100091.63
2022-11-14T17:04:48.618Z,100085.34
2022-11-14T17:07:23.153Z,100067.16
2022-11-14T17:09:51.993Z,100075.19
2022-11-14T17:12:20.048Z,100082.69
2022-11-14T17:14:51.763Z,100074.06
2022-11-14T17:17:25.016Z,100077.72
2022-11-14T17:19:56.784Z,100082.41
2022-11-14T17:22:28.279Z,100073.88
2022-11-14T17:24:59.132Z,100080.97
2022-11-14T17:27:28.457Z,100080.97
2022-11-14T17:29:57.009Z,100085.66
2022-11-14T17:32:32.136Z,100084.34
2022-11-14T17:35:00.581Z,100079.06
2022-11-14T17:37:31.398Z,100073.91
2022-11-14T17:40:05.919Z,100075.56
2022-11-14T17:42:37.988Z,100075.72
2022-11-14T17:45:10.428Z,100067.94
2022-11-14T17:47:39.122Z,100079.28
2022-11-14T17:50:11.372Z,100086.66
2022-11-14T17:52:42.171Z,100083.34
2022-11-14T17:55:11.460Z,100080.59
2022-11-14T17:57:41.064Z,100080.31
2022-11-14T18:00:18.144Z,100069.13
2022-11-14T18:02:52.583Z,100068.44
2022-11-14T18:05:20.942Z,100076.81
2022-11-14T18:07:56.024Z,100073.78
2022-11-14T18:10:24.562Z,100070.22
2022-11-14T18:12:56.954Z,100070.94
2022-11-14T18:15:29.017Z,100079.00
2022-11-14T18:17:57.265Z,100083.22
2022-11-14T18:20:31.611Z,100083.09
2022-11-14T18:22:59.559Z,100079.56
2022-11-14T18:25:36.927Z,100082.69
2022-11-14T18:28:06.579Z,100082.94
2022-11-14T18:30:46.716Z,100076.66
2022-11-14T18:33:15.913Z,100075.84
2022-11-14T18:35:50.133Z,100078.00
2022-11-14T18:38:18.973Z,100072.44
2022-11-14T18:40:55.814Z,100083.47
2022-11-14T18:43:30.454Z,100078.69
2022-11-14T18:46:22.151Z,100079.41
2022-11-14T18:49:00.868Z,100077.09
2022-11-14T18:51:42.314Z,100074.63
2022-11-14T18:54:20.887Z,100071.50
2022-11-14T18:56:52.505Z,100067.13
2022-11-14T18:59:27.308Z,100062.06
2022-11-14T19:01:58.764Z,100066.72
2022-11-14T19:04:26.927Z,100075.47
2022-11-14T19:07:03.019Z,100062.78
2022-11-14T19:09:31.803Z,100079.94
2022-11-14T19:12:30.946Z,100079.13
2022-11-14T19:15:02.600Z,100073.00
2022-11-14T19:17:31.470Z,100067.97
2022-11-14T19:20:02.712Z,100073.81
2022-11-14T19:22:38.317Z,100077.06
2022-11-14T19:25:12.563Z,100078.56
2022-11-14T19:27:46.378Z,100075.59
2022-11-14T19:30:22.703Z,100076.25
2022-11-14T19:32:52.052Z,100084.44
2022-11-14T19:35:20.741Z,100077.88
2022-11-14T19:37:49.354Z,100078.56
2022-11-14T19:40:22.803Z,100079.94
2022-11-14T19:42:58.083Z,100077.63
2022-11-14T19:45:29.185Z,100079.00
2022-11-14T19:47:57.788Z,100072.03
2022-11-14T19:50:30.775Z,100081.03
2022-11-14T19:52:59.525Z,100076.81
2022-11-14T19:55:32.671Z,100070.25
2022-11-14T19:58:01.334Z,100073.25
2022-11-14T20:00:29.715Z,100071.88
2022-11-14T20:03:05.591Z,100073.19
2022-11-14T20:05:36.633Z,100076.59
2022-11-14T20:08:07.358Z,100083.31
2022-11-14T20:10:47.987Z,100074.16
2022-11-14T20:13:21.843Z,100081.34
2022-11-14T20:15:52.756Z,100076.28
2022-11-14T20:18:21.057Z,100083.53
2022-11-14T20:20:52.383Z,100088.88
2022-11-14T20:23:22.110Z,100088.88
2022-11-14T20:26:05.923Z,100073.25
2022-11-14T20:28:43.546Z,100077.78
2022-11-14T20:31:19.618Z,100075.59
2022-11-14T20:33:56.281Z,100077.63
2022-11-14T20:36:56.712Z,100080.06
2022-11-14T20:39:24.071Z,100065.09
2022-11-14T20:41:55.807Z,100070.00
2022-11-14T20:44:33.150Z,100071.78
2022-11-14T20:47:05.152Z,100076.53
2022-11-14T20:49:39.839Z,100080.09
2022-11-14T20:52:07.751Z,100076.94
2022-11-14T20:54:35.894Z,100077.34
2022-11-14T20:57:09.817Z,100073.00
2022-11-14T20:59:38.111Z,100069.44
2022-11-14T21:02:12.386Z,100068.59
2022-11-14T21:04:47.933Z,100074.88
2022-11-14T21:07:22.245Z,100070.75
2022-11-14T21:10:13.750Z,100079.50
2022-11-14T21:13:04.945Z,100076.53
2022-11-14T21:15:35.381Z,100071.09
2022-11-14T21:18:04.880Z,100071.09
2022-11-14T21:20:33.034Z,100077.63
2022-11-14T21:23:03.582Z,100072.84
2022-11-14T21:25:31.650Z,100077.91
2022-11-14T21:28:09.025Z,100075.72
2022-11-14T21:30:38.971Z,100072.84
2022-11-14T21:33:18.681Z,100076.00
2022-11-14T21:35:52.834Z,100073.81
2022-11-14T21:38:26.983Z,100090.88
2022-11-14T21:41:01.637Z,100089.50
2022-11-14T21:43:30.908Z,100090.19
2022-11-14T21:46:08.264Z,100090.47
2022-11-14T21:48:42.260Z,100089.34
2022-11-14T21:51:28.465Z,100090.44
2022-11-14T21:53:59.842Z,100095.06
2022-11-14T21:56:33.583Z,100096.84
2022-11-14T21:59:13.259Z,100095.22
2022-11-14T22:02:12.638Z,100097.81
2022-11-14T22:04:46.665Z,100094.41
2022-11-14T22:07:17.957Z,100104.78
2022-11-14T22:09:51.616Z,100097.53
2022-11-14T22:12:25.706Z,100093.69
2022-11-14T22:14:53.801Z,100097.94
2022-11-14T22:17:21.871Z,100103.22
2022-11-14T22:19:50.149Z,100090.09
2022-11-14T22:22:20.946Z,100094.38
2022-11-14T22:24:48.939Z,100095.75
2022-11-14T22:27:20.689Z,100095.63
2022-11-14T22:29:49.174Z,100091.25
2022-11-14T22:32:21.495Z,100094.78
2022-11-14T22:34:49.566Z,100105.41
2022-11-14T22:37:21.293Z,100103.47
2022-11-14T22:39:49.364Z,100099.50
2022-11-14T22:42:24.843Z,100092.22
2022-11-14T22:44:53.141Z,100105.31
2022-11-14T22:47:21.304Z,100104.75
2022-11-14T22:49:51.926Z,100103.56
2022-11-14T22:52:22.522Z,100102.31
2022-11-14T22:54:55.817Z,100101.50
2022-11-14T22:57:23.886Z,100100.69
2022-11-14T22:59:54.689Z,100099.34
2022-11-14T23:02:26.587Z,100097.97
2022-11-14T23:04:59.651Z,100096.78
2022-11-14T23:07:36.377Z,100093.66
2022-11-14T23:10:06.509Z,100106.91
2022-11-14T23:12:37.142Z,100102.13
2022-11-14T23:15:05.760Z,100096.25
2022-11-14T23:17:38.848Z,100097.75
2022-11-14T23:20:13.589Z,100087.50
2022-11-14T23:22:44.520Z,100084.91
2022-11-14T23:25:16.896Z,100078.38
2022-11-14T23:27:56.860Z,100078.38
2022-11-14T23:30:26.971Z,100077.41
2022-11-14T23:32:54.711Z,100070.75
2022-11-14T23:35:24.967Z,100077.44
2022-11-14T23:37:53.227Z,100068.59
2022-11-14T23:40:21.301Z,100065.03
2022-11-14T23:42:52.638Z,100065.84
2022-11-14T23:45:24.394Z,100069.16
2022-11-14T23:47:53.826Z,100068.06
2022-11-14T23:50:22.690Z,100068.88
2022-11-14T23:52:51.606Z,100060.94
2022-11-14T23:55:21.167Z,100065.28
2022-11-14T23:57:52.209Z,100059.47
